Tiempo atmosférico en la estación meteorológica de Fraga, Huesca (170 m.)

Fecha
DESCASC
Temp. máxima en grados centígrados (hora)
DESCASC
Temp. mínima en grados centígrados (hora)
DESCASC
Temp. media en grados centígrados
DESCASC
Racha de viento máxima en m/sg (hora)
DESCASC
Velocidad máxima media en intervalos de 10 minutos(hora)
DESCASC
Precipitaciones diarias en mm
DESCASC
Precipitaciones de 00:00 a 06:00 en mm
DESCASC
Precipitaciones de 06:00 a 12:00 en mm
DESCASC
Precipitaciones de 12:00 a 18:00 en mm
DESCASC
Precipitaciones de 18:00 a 24:00 en mm
DESCASC
17-09-2017 24 (17:00) 9.7 (07:50) 16.8 7.78 (03:10) 4.72 (03:10) 0 0 0 0 0
16-09-2017 22 (16:40) 8.8 (06:40) 15.4 9.17 (18:50) 5.83 (18:50) 0 0 0 0 0
15-09-2017 18.2 (00:00) 11.1 (23:30) 14.7 6.67 (00:20) 3.61 (00:20) 8.6 1 2 5.6 0
14-09-2017 30.4 (15:10) 16.1 (00:00) 23.3 13.61 (17:20) 9.17 (16:30) 0 0 0 0 0
13-09-2017 31.8 (17:40) 13.4 (00:00) 22.6 8.89 (23:20) 5.28 (23:20) 0 0 0 0 0
12-09-2017 26.4 (16:30) 16.9 (00:00) 21.6 14.44 (18:10) 9.72 (18:00) 0 0 0 0 0
11-09-2017 29 (15:10) 17.1 (00:00) 23.1 17.22 (15:20) 10.56 (14:10) 0 0 0 0 0
10-09-2017 24 (15:50) 14.1 (00:00) 19.1 20.56 (17:10) 13.33 (17:00) 0 0 0 0 0
09-09-2017 24.2 (16:50) 17.2 (00:00) 20.7 14.72 (23:40) 10 (19:00) 0 0 0 0 0
08-09-2017 30.1 (17:10) 13.1 (00:00) 21.6 7.78 (23:10) 4.72 (23:20) 0 0 0 0 0
07-09-2017 28.9 (17:20) 14.5 (00:00) 21.7 8.33 (19:40) 4.72 (19:40) 0 0 0 0 0
06-09-2017 33.1 (17:30) 18.7 (00:00) 25.9 9.72 (19:50) 6.39 (19:50) 0 0 0 0 0
05-09-2017 33.4 (16:50) 17.7 (00:00) 25.6 6.67 (21:50) 4.17 (03:30) 0 0 0 0 0
04-09-2017 31.5 (16:30) 17.7 (00:00) 24.6 11.39 (17:30) 6.67 (17:20) 0.2 0.2 0 0 0
03-09-2017 30.4 (18:50) 11.2 (00:00) 20.8 5.56 (00:20) 3.61 (00:20) 0.4 0 0 0 0.4
02-09-2017 28.5 (17:40) 14.8 (00:00) 21.7 13.61 (00:10) 7.78 (00:30) 0 0 0 0 0
01-09-2017 28.2 (16:20) 16.5 (00:00) 22.4 13.89 (22:50) 10.56 (22:40) 0 0 0 0 0
31-08-2017 28.6 (18:30) 17.5 (00:00) 23.1 7.5 (10:30) 4.17 (13:20) 0.2 0.2 0 0 0
30-08-2017 30.8 (16:00) 18.8 (00:00) 24.8 8.61 (05:10) 5 (05:10) 1.8 0.4 0 0 1.4
29-08-2017 28 (16:10) 19.2 (00:00) 23.6 11.67 (18:20) 6.94 (18:10) 0.6 0 0.2 0 0.4
28-08-2017 36.1 (15:50) 18 (00:00) 27 11.11 (17:10) 6.11 (17:00) 0 0 0 0 0
27-08-2017 35.6 (14:40) 21.8 (00:00) 28.7 15.56 (17:50) 10 (17:50) 0.2 0 0 0 0.2
26-08-2017 35.7 (15:20) 21.2 (00:00) 28.5 14.17 (19:50) 6.11 (19:50) 0.4 0 0 0 0.4
25-08-2017 33.5 (14:50) 21.3 (00:00) 27.4 12.5 (15:40) 7.22 (16:00) 0 0 0 0 0
24-08-2017 34.4 (16:00) 20.5 (00:00) 27.5 13.61 (01:50) 8.06 (02:50) 2.6 2 0.6 0 0
23-08-2017 34.3 (15:10) 20.4 (00:00) 27.3 13.61 (01:10) 7.5 (01:00) 0 0 0 0 0
22-08-2017 35.7 (15:30) 19.3 (00:00) 27.5 12.5 (20:10) 6.67 (20:10) 0 0 0 0 0

Gráficas

Temp. máximas Temp. mínimas Temp. medias Precipitaciones Rachas de viento máximas Velocidades máximas media en intervalos de 10 minutos

Datos horarios

Fecha y hora oficial Temperatura (ºC) Velocidad del viento (km/h) Dirección del viento Racha (km/h) Dirección de racha Precipitación (mm) Presión (hPa) Tendencia (hPa) Humedad (%)
2017-09-20 23:00:00 19.2 9 Sudeste 18 Sudeste 0 -- -- 59
2017-09-20 22:00:00 20 8 Sudeste 14 Este 0 -- -- 54
2017-09-20 21:00:00 20.2 4 Sur 10 Nordeste 0 -- -- 42
2017-09-20 20:00:00 22 7 Nordeste 13 Nordeste 0 -- -- 39
2017-09-20 19:00:00 24.7 9 Nordeste 14 Este 0 -- -- 34
2017-09-20 18:00:00 25.7 6 Nordeste 17 Nordeste 0 -- -- 32
2017-09-20 17:00:00 25.1 5 Norte 15 Nordeste 0 -- -- 33
2017-09-20 16:00:00 24.2 5 Oeste 16 Noroeste 0 -- -- 32
2017-09-20 15:00:00 23.3 5 Oeste 15 Oeste 0 -- -- 34
2017-09-20 14:00:00 21.9 6 Este 12 Nordeste 0 -- -- 39
2017-09-20 13:00:00 19.5 4 Oeste 9 Este 0 -- -- 43
2017-09-20 12:00:00 17.1 4 Sur 9 Sur 0 -- -- 50
2017-09-20 11:00:00 14.7 4 Oeste 9 Oeste 0 -- -- 58
2017-09-20 10:00:00 12.1 2 Norte 4 Nordeste 0 -- -- 65
2017-09-20 09:00:00 10.1 2 Noroeste 5 Norte 0 -- -- 73
2017-09-20 08:00:00 8.7 3 Noroeste 4 Noroeste 0 -- -- 75
2017-09-20 07:00:00 9.5 0 Calma 4 Sudoeste 0 -- -- 71
2017-09-20 06:00:00 10.5 2 Oeste 5 Noroeste 0 -- -- 67
2017-09-20 05:00:00 11.6 2 Oeste 6 Este 0 -- -- 61
2017-09-20 04:00:00 12.5 2 Nordeste 17 Sudoeste 0 -- -- 58
2017-09-20 03:00:00 14.1 11 Sudoeste 17 Sudoeste 0 -- -- 52
2017-09-20 02:00:00 14.6 0 Calma 18 Sudoeste 0 -- -- 49
2017-09-20 01:00:00 15.7 8 Sudoeste 18 Sudoeste 0 -- -- 47
2017-09-20 00:00:00 16.6 5 Sudoeste 14 Sudoeste 0 -- -- 45
2017-09-19 23:00:00 17.6 9 Sudoeste 15 Oeste 0 -- -- 42
2017-09-19 22:00:00 18.5 10 Oeste 22 Oeste 0 -- -- 39
2017-09-19 21:00:00 19.7 8 Sudoeste 23 Oeste 0 -- -- 37
2017-09-19 20:00:00 21.3 15 Oeste 33 Noroeste 0 -- -- 34
2017-09-19 19:00:00 23.7 20 Oeste 35 Oeste 0 -- -- 31
2017-09-19 18:00:00 24.5 23 Oeste 37 Oeste 0 -- -- 28
2017-09-19 17:00:00 25.3 23 Oeste 40 Oeste 0 -- -- 27
2017-09-19 16:00:00 24.1 22 Noroeste 45 Noroeste 0 -- -- 30
2017-09-19 15:00:00 23.6 21 Oeste 41 Oeste 0 -- -- 30
2017-09-19 14:00:00 22.6 19 Noroeste 35 Noroeste 0 -- -- 34
2017-09-19 13:00:00 20.8 15 Noroeste 29 Noroeste 0 -- -- 39
2017-09-19 12:00:00 20 15 Noroeste 31 Oeste 0 -- -- 41
2017-09-19 11:00:00 18.3 22 Oeste 33 Oeste 0 -- -- 48
2017-09-19 10:00:00 15.8 21 Oeste 29 Oeste 0 -- -- 59
2017-09-19 09:00:00 13.6 15 Oeste 26 Oeste 0 -- -- 71
2017-09-19 08:00:00 12.3 14 Oeste 26 Oeste 0 -- -- 74
2017-09-19 07:00:00 13 7 Oeste 23 Oeste 0 -- -- 72
2017-09-19 06:00:00 12.7 7 Oeste 13 Sudoeste 0 -- -- 74
2017-09-19 05:00:00 13.6 9 Sur 17 Oeste 0 -- -- 70
2017-09-19 04:00:00 14.5 6 Sudoeste 12 Oeste 0 -- -- 67
2017-09-19 03:00:00 15.5 8 Oeste 15 Oeste 0 -- -- 64
2017-09-19 02:00:00 16.3 8 Sur 14 Noroeste 0 -- -- 62
2017-09-19 01:00:00 17.4 5 Sudoeste 18 Oeste 0 -- -- 58
2017-09-19 00:00:00 18.3 12 Oeste 22 Oeste 0 -- -- 54
2017-09-18 23:00:00 19 9 Oeste 26 Oeste 0 -- -- 52
2017-09-18 22:00:00 19.8 15 Oeste 29 Oeste 0 -- -- 52
2017-09-18 21:00:00 20.6 22 Oeste 37 Oeste 0 -- -- 49
2017-09-18 20:00:00 21.7 23 Oeste 46 Oeste 0 -- -- 46
2017-09-18 19:00:00 23.1 29 Noroeste 45 Oeste 0 -- -- 43
2017-09-18 18:00:00 23.6 33 Oeste 46 Oeste 0 -- -- 41
2017-09-18 17:00:00 23.5 27 Noroeste 50 Oeste 0 -- -- 43
2017-09-18 16:00:00 23.2 26 Noroeste 41 Noroeste 0 -- -- 42
2017-09-18 15:00:00 22.7 22 Noroeste 38 Noroeste 0 -- -- 43
2017-09-18 14:00:00 21.8 22 Noroeste 36 Noroeste 0 -- -- 46
2017-09-18 13:00:00 20.5 8 Noroeste 18 Oeste 0 -- -- 49
2017-09-18 12:00:00 18.8 10 Oeste 14 Oeste 0 -- -- 60
2017-09-18 11:00:00 15.9 10 Oeste 15 Oeste 0 -- -- 69
2017-09-18 10:00:00 14.3 4 Noroeste 13 Noroeste 0 -- -- 70
2017-09-18 09:00:00 13.1 2 Noroeste 5 Noroeste 0 -- -- 81
2017-09-18 08:00:00 12.2 0 Calma 7 Oeste 0 -- -- 85
2017-09-18 07:00:00 12.6 2 Noroeste 6 Noroeste 0 -- -- 85
2017-09-18 06:00:00 12.9 3 Noroeste 6 Oeste 0 -- -- 84
2017-09-18 05:00:00 13.7 0 Calma 5 Noroeste 0 -- -- 82
2017-09-18 04:00:00 14.2 2 Oeste 5 Noroeste 0 -- -- 79
2017-09-18 03:00:00 14.3 3 Oeste 5 Sur 0 -- -- 79
2017-09-18 02:00:00 15.3 4 Sur 6 Sur 0 -- -- 74
2017-09-18 01:00:00 16.4 2 Norte 9 Oeste 0 -- -- 71
2017-09-18 00:00:00 18.6 4 Sudeste 13 Sudeste 0 -- -- 69
2017-09-17 23:00:00 18.7 8 Sudeste 13 Sur 0 -- -- 65
2017-09-17 22:00:00 18.6 2 Sudoeste 6 Sur 0 -- -- 51
2017-09-17 21:00:00 19.4 6 Sur 11 Sudeste 0 -- -- 48
2017-09-17 20:00:00 20.6 4 Nordeste 10 Este 0 -- -- 44
2017-09-17 19:00:00 21.6 9 Este 16 Sudeste 0 -- -- 40
2017-09-17 18:00:00 23.1 4 Nordeste 20 Nordeste 0 -- -- 36
2017-09-17 17:00:00 24 12 Nordeste 22 Este 0 -- -- 36
2017-09-17 16:00:00 23.2 5 Oeste 14 Oeste 0 -- -- 32
2017-09-17 15:00:00 22.2 7 Sur 20 Sudoeste 0 -- -- 37
2017-09-17 14:00:00 21.4 7 Sudoeste 18 Oeste 0 -- -- 40
2017-09-17 13:00:00 19.4 5 Norte 13 Noroeste 0 -- -- 46
2017-09-17 12:00:00 17.7 4 Noroeste 10 Noroeste 0 -- -- 51
2017-09-17 11:00:00 15.5 3 Norte 6 Sur 0 -- -- 58
2017-09-17 10:00:00 13.1 2 Oeste 5 Oeste 0 -- -- 65
2017-09-17 09:00:00 10.8 0 Calma 4 Sur 0 -- -- 76
2017-09-17 08:00:00 9.7 2 Nordeste 6 Noroeste 0 -- -- 75
2017-09-17 07:00:00 10.5 3 Noroeste 11 Sudoeste 0 -- -- 71
2017-09-17 06:00:00 11.6 9 Sudoeste 18 Sudoeste 0 -- -- 67
2017-09-17 05:00:00 11.7 9 Sudoeste 15 Sudoeste 0 -- -- 67
2017-09-17 04:00:00 12.7 12 Sudoeste 28 Sudoeste 0 -- -- 62
2017-09-17 03:00:00 12.9 14 Sudoeste 23 Sudoeste 0 -- -- 60
2017-09-17 02:00:00 12.7 6 Sudoeste 16 Sudoeste 0 -- -- 60
2017-09-17 01:00:00 13.2 9 Sudoeste 23 Sudoeste 0 -- -- 59
2017-09-17 00:00:00 14.1 8 Sudoeste 19 Oeste 0 -- -- 56
2017-09-16 23:00:00 14.6 13 Oeste 20 Oeste 0 -- -- 54
2017-09-16 22:00:00 15.8 11 Oeste 18 Oeste 0 -- -- 50
2017-09-16 21:00:00 17.2 15 Oeste 27 Oeste 0 -- -- 46
2017-09-16 20:00:00 18.6 12 Noroeste 31 Noroeste 0 -- -- 42
2017-09-16 19:00:00 20.9 15 Noroeste 33 Oeste 0 -- -- 36
2017-09-16 18:00:00 21.7 20 Oeste 32 Oeste 0 -- -- 34
2017-09-16 17:00:00 21.6 14 Oeste 29 Oeste 0 -- -- 38
2017-09-16 16:00:00 20.7 17 Oeste 23 Oeste 0 -- -- 39
2017-09-16 15:00:00 19.5 6 Noroeste 23 Noroeste 0 -- -- 47
2017-09-16 14:00:00 18.4 7 Noroeste 16 Noroeste 0 -- -- 57
2017-09-16 13:00:00 17.2 6 Norte 24 Oeste 0 -- -- 60
2017-09-16 12:00:00 15.6 12 Oeste 27 Oeste 0 -- -- 64
2017-09-16 11:00:00 13.7 18 Oeste 28 Noroeste 0 -- -- 70
2017-09-16 10:00:00 12 9 Oeste 18 Oeste 0 -- -- 76
2017-09-16 09:00:00 10 6 Sudoeste 15 Sudoeste 0 -- -- 82
2017-09-16 08:00:00 8.9 4 Sur 13 Sur 0 -- -- 84
2017-09-16 07:00:00 8.9 5 Sudoeste 14 Sudoeste 0 -- -- 85
2017-09-16 06:00:00 8.9 7 Sudoeste 10 Sudoeste 0 -- -- 87
2017-09-16 05:00:00 9.1 6 Sudoeste 9 Sudoeste 0 -- -- 88
2017-09-16 04:00:00 9.5 4 Sudoeste 6 Sudoeste 0 -- -- 89
2017-09-16 03:00:00 10 2 Sudoeste 8 Sudoeste 0 -- -- 88
2017-09-16 02:00:00 10.3 6 Sudoeste 9 Sudoeste 0 -- -- 93
2017-09-16 01:00:00 10.6 3 Sur 5 Sudoeste 0 -- -- 94
2017-09-16 00:00:00 11.1 3 Sudoeste 5 Sudeste 0 -- -- 91
2017-09-15 23:00:00 11.4 0 Calma 7 Este 0 -- -- 87
2017-09-15 22:00:00 12 4 Este 10 Sudeste 0 -- -- 87
2017-09-15 21:00:00 12.5 4 Este 10 Sudeste 0 -- -- 85
2017-09-15 20:00:00 12.9 6 Sur 12 Sur 0 -- -- 82
2017-09-15 19:00:00 13.5 6 Sur 13 Sudoeste 0 -- -- 84
2017-09-15 18:00:00 13.4 10 Sur 19 Sur 0 -- -- 87
2017-09-15 17:00:00 13.5 5 Sudeste 13 Sur 0 -- -- 89
2017-09-15 16:00:00 13.1 6 Sur 11 Sur 0 -- -- 91
2017-09-15 15:00:00 12.8 2 Nordeste 8 Noroeste 0.8 -- -- 92
2017-09-15 14:00:00 12.2 7 Noroeste 19 Noroeste 2 -- -- 93
2017-09-15 13:00:00 12.5 12 Noroeste 17 Noroeste 2.8 -- -- 93
2017-09-15 12:00:00 13 9 Oeste 14 Oeste 0.8 -- -- 91
2017-09-15 11:00:00 12.8 6 Noroeste 15 Noroeste 0.4 -- -- 90
2017-09-15 10:00:00 12.7 11 Noroeste 18 Noroeste 0.4 -- -- 85
2017-09-15 09:00:00 13.1 8 Noroeste 13 Noroeste 0.4 -- -- 82
2017-09-15 08:00:00 13.7 8 Noroeste 11 Noroeste 0 -- -- 73
2017-09-15 07:00:00 14 8 Noroeste 13 Noroeste 0 -- -- 74
2017-09-15 06:00:00 14.7 2 Oeste 10 Noroeste 0 -- -- 67
2017-09-15 05:00:00 14.8 6 Oeste 14 Sudoeste 0 -- -- 63
2017-09-15 04:00:00 14.8 2 Oeste 15 Oeste 0 -- -- 65
2017-09-15 03:00:00 15.2 5 Oeste 19 Oeste 0 -- -- 61
2017-09-15 02:00:00 14.9 8 Sudoeste 17 Oeste 0 -- -- 66
2017-09-15 01:00:00 15 7 Oeste 24 Sudoeste 1 -- -- 73
2017-09-15 00:00:00 18.2 14 Sudoeste 28 Sudoeste 0 -- -- 47
2017-09-14 23:00:00 18.6 6 Sudoeste 39 Oeste 0 -- -- 45
2017-09-14 22:00:00 19.5 22 Oeste 37 Oeste 0 -- -- 44
2017-09-14 21:00:00 21.4 13 Oeste 39 Oeste 0 -- -- 42
2017-09-14 20:00:00 23.5 27 Oeste 41 Oeste 0 -- -- 40
2017-09-14 19:00:00 25.8 26 Oeste 44 Oeste 0 -- -- 37
2017-09-14 18:00:00 27.6 26 Noroeste 49 Oeste 0 -- -- 35
2017-09-14 17:00:00 28.9 26 Oeste 47 Oeste 0 -- -- 32
2017-09-14 16:00:00 29.5 33 Oeste 46 Oeste 0 -- -- 33
2017-09-14 15:00:00 30 23 Oeste 47 Oeste 0 -- -- 36
2017-09-14 14:00:00 29.3 21 Oeste 33 Oeste 0 -- -- 41
2017-09-14 13:00:00 26.4 7 Sudoeste 22 Oeste 0 -- -- 52
2017-09-14 12:00:00 23.4 5 Noroeste 14 Noroeste 0 -- -- 63
2017-09-14 11:00:00 19.7 8 Noroeste 17 Noroeste 0 -- -- 72
2017-09-14 10:00:00 18 9 Noroeste 15 Noroeste 0 -- -- 76
2017-09-14 09:00:00 17 5 Noroeste 10 Noroeste 0 -- -- 80
2017-09-14 08:00:00 16.1 0 Calma 8 Oeste 0 -- -- 83
2017-09-14 07:00:00 16.3 0 Calma 6 Oeste 0 -- -- 81
2017-09-14 06:00:00 18.4 5 Sudeste 21 Nordeste 0 -- -- 73
2017-09-14 05:00:00 18.5 5 Nordeste 21 Nordeste 0 -- -- 73
2017-09-14 04:00:00 19.3 10 Nordeste 20 Este 0 -- -- 72
2017-09-14 03:00:00 19.8 10 Este 21 Este 0 -- -- 72
2017-09-14 02:00:00 20.2 14 Este 23 Este 0 -- -- 70
2017-09-14 01:00:00 21.8 8 Este 26 Sudeste 0 -- -- 62
2017-09-14 00:00:00 22.4 17 Sudeste 32 Sudeste 0 -- -- 61
2017-09-13 23:00:00 22.8 16 Sudeste 31 Sur 0 -- -- 64
2017-09-13 22:00:00 23.4 18 Sudeste 31 Sudeste 0 -- -- 63
2017-09-13 21:00:00 25.2 14 Sudeste 29 Sudeste 0 -- -- 50
2017-09-13 20:00:00 27.4 12 Sudeste 25 Sudeste 0 -- -- 41
2017-09-13 19:00:00 30.9 7 Este 17 Nordeste 0 -- -- 33
2017-09-13 18:00:00 31.7 6 Nordeste 19 Nordeste 0 -- -- 31
2017-09-13 17:00:00 31.2 10 Nordeste 20 Nordeste 0 -- -- 32
2017-09-13 16:00:00 30.8 8 Nordeste 20 Este 0 -- -- 34
2017-09-13 15:00:00 29.9 11 Nordeste 23 Este 0 -- -- 35
2017-09-13 14:00:00 27.6 7 Este 15 Este 0 -- -- 39
2017-09-13 13:00:00 25.6 5 Noroeste 13 Noroeste 0 -- -- 42
2017-09-13 12:00:00 23.9 5 Noroeste 10 Nordeste 0 -- -- 45
2017-09-13 11:00:00 21.1 3 Oeste 7 Noroeste 0 -- -- 51
2017-09-13 10:00:00 18.4 3 Noroeste 7 Este 0 -- -- 56
2017-09-13 09:00:00 14.6 0 Calma 3 Oeste 0 -- -- 68
2017-09-13 08:00:00 13.4 3 Sudoeste 7 Sur 0 -- -- 71
2017-09-13 07:00:00 15.1 2 Sur 9 Sur 0 -- -- 61
2017-09-13 06:00:00 15.7 0 Calma 9 Sudoeste 0 -- -- 59
2017-09-13 05:00:00 16.5 4 Nordeste 6 Nordeste 0 -- -- 56
2017-09-13 04:00:00 17.5 3 Nordeste 12 Sur 0 -- -- 53
2017-09-13 03:00:00 18.7 4 Norte 10 Sudoeste 0 -- -- 51
2017-09-13 02:00:00 19.1 6 Sudoeste 15 Sudoeste 0 -- -- 48
2017-09-13 01:00:00 20 6 Oeste 19 Oeste 0 -- -- 43
2017-09-13 00:00:00 20.5 11 Oeste 28 Oeste 0 -- -- 39
2017-09-12 23:00:00 20.7 15 Oeste 26 Oeste 0 -- -- 40
2017-09-12 22:00:00 21.1 13 Oeste 27 Oeste 0 -- -- 39
2017-09-12 21:00:00 22.4 14 Oeste 35 Oeste 0 -- -- 37
2017-09-12 20:00:00 23.5 25 Oeste 47 Oeste 0 -- -- 35
2017-09-12 19:00:00 24.9 26 Oeste 52 Oeste 0 -- -- 33
2017-09-12 18:00:00 25.6 35 Oeste 50 Oeste 0 -- -- 32
2017-09-12 17:00:00 26.2 29 Oeste 45 Oeste 0 -- -- 33
2017-09-12 16:00:00 26 27 Oeste 45 Noroeste 0 -- -- 33
2017-09-12 15:00:00 25.9 32 Oeste 49 Oeste 0 -- -- 34
2017-09-12 14:00:00 24.8 30 Oeste 46 Noroeste 0 -- -- 34
2017-09-12 13:00:00 24.6 23 Oeste 48 Noroeste 0 -- -- 38
2017-09-12 12:00:00 22.2 26 Noroeste 34 Noroeste 0 -- -- 44
2017-09-12 11:00:00 21.8 20 Oeste 36 Oeste 0 -- -- 45
2017-09-12 10:00:00 18.6 25 Oeste 43 Oeste 0 -- -- 58
2017-09-12 09:00:00 17.2 20 Oeste 40 Sudoeste 0 -- -- 64
2017-09-12 08:00:00 17.1 23 Oeste 35 Oeste 0 -- -- 64
2017-09-12 07:00:00 17.4 12 Oeste 33 Oeste 0 -- -- 60
2017-09-12 06:00:00 17.5 10 Sudoeste 27 Oeste 0 -- -- 62
2017-09-12 05:00:00 17.4 10 Oeste 28 Oeste 0 -- -- 63
2017-09-12 04:00:00 17.7 6 Sudoeste 27 Sudoeste 0 -- -- 64
2017-09-12 03:00:00 18 10 Sudoeste 28 Sudoeste 0 -- -- 63
2017-09-12 02:00:00 19.3 11 Sudoeste 30 Oeste 0 -- -- 60
2017-09-12 01:00:00 20.5 19 Oeste 29 Oeste 0 -- -- 55
2017-09-12 00:00:00 20.9 11 Noroeste 25 Oeste 0 -- -- 52
2017-09-11 23:00:00 21.7 10 Noroeste 29 Oeste 0 -- -- 51
2017-09-11 22:00:00 22.8 16 Oeste 25 Oeste 0 -- -- 47
2017-09-11 21:00:00 24.3 6 Oeste 32 Noroeste 0 -- -- 44
2017-09-11 20:00:00 25.5 22 Noroeste 41 Noroeste 0 -- -- 42
2017-09-11 19:00:00 27.2 25 Noroeste 44 Oeste 0 -- -- 39
2017-09-11 18:00:00 28.3 26 Noroeste 44 Noroeste 0 -- -- 38
2017-09-11 17:00:00 27.9 32 Noroeste 53 Noroeste 0 -- -- 40
2017-09-11 16:00:00 28.1 35 Noroeste 62 Noroeste 0 -- -- 41
2017-09-11 15:00:00 28.8 31 Oeste 54 Oeste 0 -- -- 39
2017-09-11 14:00:00 28.5 36 Oeste 58 Oeste 0 -- -- 40
2017-09-11 13:00:00 27.4 33 Oeste 55 Oeste 0 -- -- 43
2017-09-11 12:00:00 26 25 Oeste 43 Oeste 0 -- -- 47
2017-09-11 11:00:00 23.7 24 Oeste 39 Oeste 0 -- -- 51
2017-09-11 10:00:00 21.8 15 Oeste 36 Oeste 0 -- -- 56
2017-09-11 09:00:00 19.9 10 Oeste 35 Oeste 0 -- -- 63
2017-09-11 08:00:00 18.3 11 Sur 26 Oeste 0 -- -- 65
2017-09-11 07:00:00 17.6 14 Sudoeste 26 Sudoeste 0 -- -- 67
2017-09-11 06:00:00 17.4 12 Oeste 27 Sudoeste 0 -- -- 65
2017-09-11 05:00:00 17.4 10 Sudoeste 20 Sudoeste 0 -- -- 65
2017-09-11 04:00:00 17.8 9 Noroeste 29 Oeste 0 -- -- 60
2017-09-11 03:00:00 18.2 19 Oeste 35 Oeste 0 -- -- 55
2017-09-11 02:00:00 17.9 10 Sudoeste 32 Oeste 0 -- -- 54
2017-09-11 01:00:00 19.1 19 Oeste 32 Oeste 0 -- -- 49
2017-09-11 00:00:00 19.3 22 Oeste 44 Oeste 0 -- -- 48
2017-09-10 23:00:00 19.3 15 Oeste 44 Noroeste 0 -- -- 48
2017-09-10 22:00:00 19.9 23 Noroeste 50 Noroeste 0 -- -- 48
2017-09-10 21:00:00 20.1 32 Noroeste 57 Noroeste 0 -- -- 48
2017-09-10 20:00:00 20.9 33 Noroeste 63 Noroeste 0 -- -- 44
2017-09-10 19:00:00 22.1 41 Noroeste 67 Noroeste 0 -- -- 43
2017-09-10 18:00:00 23.2 38 Noroeste 74 Noroeste 0 -- -- 40
2017-09-10 17:00:00 23.2 48 Oeste 72 Oeste 0 -- -- 41
2017-09-10 16:00:00 24 41 Oeste 63 Noroeste 0 -- -- 38
2017-09-10 15:00:00 23.9 40 Oeste 59 Noroeste 0 -- -- 39
2017-09-10 14:00:00 23.4 32 Noroeste 53 Oeste 0 -- -- 39
2017-09-10 13:00:00 22.2 31 Noroeste 50 Oeste 0 -- -- 38
2017-09-10 12:00:00 20.7 30 Noroeste 49 Oeste 0 -- -- 44
2017-09-10 11:00:00 18.8 31 Noroeste 53 Oeste 0 -- -- 51
2017-09-10 10:00:00 17 28 Noroeste 44 Noroeste 0 -- -- 56
2017-09-10 09:00:00 15.4 20 Noroeste 39 Noroeste 0 -- -- 59
2017-09-10 08:00:00 14.2 21 Noroeste 39 Noroeste 0 -- -- 65
2017-09-10 07:00:00 14.2 23 Noroeste 36 Noroeste 0 -- -- 64
2017-09-10 06:00:00 14.1 20 Noroeste 38 Noroeste 0 -- -- 65
2017-09-10 05:00:00 14.6 24 Noroeste 48 Noroeste 0 -- -- 63
2017-09-10 04:00:00 15.2 27 Noroeste 50 Noroeste 0 -- -- 59
2017-09-10 03:00:00 15.7 30 Noroeste 55 Oeste 0 -- -- 56
2017-09-10 02:00:00 16.2 31 Noroeste 49 Oeste 0 -- -- 54
2017-09-10 01:00:00 16.4 30 Oeste 50 Oeste 0 -- -- 53
2017-09-10 00:00:00 17.2 23 Noroeste 53 Noroeste 0 -- -- 49
2017-09-09 23:00:00 18 29 Oeste 47 Oeste 0 -- -- 47
2017-09-09 22:00:00 18.6 29 Oeste 52 Oeste 0 -- -- 48
2017-09-09 21:00:00 19.8 21 Oeste 50 Oeste 0 -- -- 46
2017-09-09 20:00:00 21 25 Oeste 48 Noroeste 0 -- -- 47
2017-09-09 19:00:00 22.1 36 Oeste 51 Oeste 0 -- -- 40
2017-09-09 18:00:00 22.6 30 Oeste 45 Oeste 0 -- -- 41
2017-09-09 17:00:00 23.8 26 Oeste 45 Oeste 0 -- -- 39
2017-09-09 16:00:00 23 19 Noroeste 43 Noroeste 0 -- -- 43
2017-09-09 15:00:00 21.9 21 Oeste 36 Oeste 0 -- -- 46
2017-09-09 14:00:00 20.7 13 Noroeste 30 Oeste 0 -- -- 51
2017-09-09 13:00:00 19.5 10 Oeste 24 Oeste 0 -- -- 71
2017-09-09 12:00:00 19.8 19 Oeste 26 Oeste 0 -- -- 64
2017-09-09 11:00:00 19.5 8 Sudoeste 17 Sudoeste 0 -- -- 63
2017-09-09 10:00:00 19 9 Sudoeste 20 Sudoeste 0 -- -- 60
2017-09-09 09:00:00 18.3 6 Sudoeste 9 Sudoeste 0 -- -- 69
2017-09-09 08:00:00 17.7 2 Oeste 17 Noroeste 0 -- -- 67
2017-09-09 07:00:00 17.8 5 Noroeste 14 Noroeste 0 -- -- 72
2017-09-09 06:00:00 17.9 4 Sur 6 Noroeste 0 -- -- 71
2017-09-09 05:00:00 17.6 3 Sudoeste 10 Noroeste 0 -- -- 73
2017-09-09 04:00:00 17.8 7 Noroeste 12 Noroeste 0 -- -- 72
2017-09-09 03:00:00 18 8 Nordeste 26 Nordeste 0 -- -- 66
2017-09-09 02:00:00 18.8 17 Nordeste 23 Este 0 -- -- 67
2017-09-09 01:00:00 19.6 11 Este 22 Este 0 -- -- 65
2017-09-09 00:00:00 21.3 12 Este 28 Sudeste 0 -- -- 75
2017-09-08 23:00:00 22.3 14 Sudeste 26 Sudeste 0 -- -- 73
2017-09-08 22:00:00 23.4 14 Sudeste 27 Sudeste 0 -- -- 65
2017-09-08 21:00:00 24.6 12 Sudeste 23 Sudeste 0 -- -- 48
2017-09-08 20:00:00 26 9 Nordeste 17 Este 0 -- -- 35
2017-09-08 19:00:00 27.8 10 Este 19 Nordeste 0 -- -- 32
2017-09-08 18:00:00 29.4 10 Este 18 Nordeste 0 -- -- 29
2017-09-08 17:00:00 29.9 5 Nordeste 13 Oeste 0 -- -- 28
2017-09-08 16:00:00 28.4 4 Oeste 13 Noroeste 0 -- -- 29
2017-09-08 15:00:00 26.5 4 Noroeste 15 Noroeste 0 -- -- 33
2017-09-08 14:00:00 24.5 5 Norte 17 Noroeste 0 -- -- 40
2017-09-08 13:00:00 22.3 6 Oeste 13 Norte 0 -- -- 47
2017-09-08 12:00:00 20.1 3 Oeste 11 Oeste 0 -- -- 52
2017-09-08 11:00:00 18.3 4 Sudeste 14 Noroeste 0 -- -- 56
2017-09-08 10:00:00 15.8 5 Noroeste 12 Noroeste 0 -- -- 65
2017-09-08 09:00:00 14.2 3 Noroeste 9 Sudoeste 0 -- -- 70
2017-09-08 08:00:00 13.1 5 Sudoeste 14 Sudoeste 0 -- -- 74
2017-09-08 07:00:00 13.7 5 Sudoeste 15 Sudoeste 0 -- -- 71
2017-09-08 06:00:00 14.4 8 Oeste 17 Sudoeste 0 -- -- 68
2017-09-08 05:00:00 14.7 10 Sudoeste 20 Sudoeste 0 -- -- 69
2017-09-08 04:00:00 15.2 8 Sudoeste 15 Sudoeste 0 -- -- 67
2017-09-08 03:00:00 16.4 8 Oeste 22 Sudoeste 0 -- -- 62
2017-09-08 02:00:00 17.9 10 Sudoeste 20 Oeste 0 -- -- 55
2017-09-08 01:00:00 18.8 5 Sudoeste 15 Sudoeste 0 -- -- 51
2017-09-08 00:00:00 19.7 4 Sur 15 Sudoeste 0 -- -- 49
2017-09-07 23:00:00 21.1 9 Sudoeste 19 Sudoeste 0 -- -- 46
2017-09-07 22:00:00 22.2 10 Sudoeste 19 Oeste 0 -- -- 43
2017-09-07 21:00:00 23.5 9 Oeste 18 Oeste 0 -- -- 39
2017-09-07 20:00:00 25.8 8 Noroeste 30 Oeste 0 -- -- 33
2017-09-07 19:00:00 27.9 5 Noroeste 21 Noroeste 0 -- -- 30
2017-09-07 18:00:00 28.1 7 Norte 22 Noroeste 0 -- -- 32
2017-09-07 17:00:00 28.5 13 Noroeste 28 Sudoeste 0 -- -- 32
2017-09-07 16:00:00 28.4 13 Oeste 28 Oeste 0 -- -- 31
2017-09-07 15:00:00 27 10 Sudoeste 25 Oeste 0 -- -- 34
2017-09-07 14:00:00 25.7 13 Sudoeste 25 Sudoeste 0 -- -- 37
2017-09-07 13:00:00 23.9 9 Oeste 21 Oeste 0 -- -- 42
2017-09-07 12:00:00 21.8 13 Oeste 23 Oeste 0 -- -- 47
2017-09-07 11:00:00 19.6 12 Oeste 26 Oeste 0 -- -- 53
2017-09-07 10:00:00 17.6 16 Oeste 25 Oeste 0 -- -- 59
2017-09-07 09:00:00 15.3 9 Sudoeste 15 Oeste 0 -- -- 70
2017-09-07 08:00:00 14.5 3 Oeste 20 Oeste 0 -- -- 72
2017-09-07 07:00:00 14.8 10 Sudoeste 23 Sudoeste 0 -- -- 70
2017-09-07 06:00:00 15.3 8 Oeste 16 Oeste 0 -- -- 69
2017-09-07 05:00:00 15.6 4 Sudoeste 14 Oeste 0 -- -- 68
2017-09-07 04:00:00 16.1 5 Sur 12 Sur 0 -- -- 66
2017-09-07 03:00:00 16.7 7 Sudoeste 22 Oeste 0 -- -- 62
2017-09-07 02:00:00 17.7 9 Sudoeste 27 Sudoeste 0 -- -- 58
2017-09-07 01:00:00 18.6 6 Oeste 23 Oeste 0 -- -- 55
2017-09-07 00:00:00 19.8 6 Oeste 22 Oeste 0 -- -- 54
2017-09-06 23:00:00 21.7 8 Sudoeste 19 Sudoeste 0 -- -- 50
2017-09-06 22:00:00 23.6 13 Oeste 32 Oeste 0 -- -- 46
2017-09-06 21:00:00 25.9 15 Oeste 31 Oeste 0 -- -- 42
2017-09-06 20:00:00 28.6 23 Oeste 35 Oeste 0 -- -- 38
2017-09-06 19:00:00 31.7 17 Oeste 33 Oeste 0 -- -- 35
2017-09-06 18:00:00 32.7 7 Oeste 18 Noroeste 0 -- -- 33
2017-09-06 17:00:00 32 8 Noroeste 17 Noroeste 0 -- -- 36
2017-09-06 16:00:00 31.3 5 Oeste 22 Sudoeste 0 -- -- 36
2017-09-06 15:00:00 30.3 5 Nordeste 23 Oeste 0 -- -- 40
2017-09-06 14:00:00 29.6 10 Oeste 22 Oeste 0 -- -- 41
2017-09-06 13:00:00 27.4 13 Sudoeste 29 Oeste 0 -- -- 46
2017-09-06 12:00:00 26.3 9 Sudoeste 24 Oeste 0 -- -- 49
2017-09-06 11:00:00 24 13 Oeste 24 Oeste 0 -- -- 55
2017-09-06 10:00:00 21.8 9 Sudoeste 20 Sudoeste 0 -- -- 62
2017-09-06 09:00:00 20 6 Sudoeste 18 Sudoeste 0 -- -- 69
2017-09-06 08:00:00 18.8 3 Sudoeste 15 Sudoeste 0 -- -- 73
2017-09-06 07:00:00 19.2 6 Sur 14 Sudoeste 0 -- -- 74
2017-09-06 06:00:00 19.8 7 Sudoeste 12 Sudoeste 0 -- -- 75
2017-09-06 05:00:00 20.9 0 Calma 14 Sudoeste 0 -- -- 73
2017-09-06 04:00:00 21.8 10 Sur 15 Sur 0 -- -- 73
2017-09-06 03:00:00 22.6 4 Oeste 14 Este 0 -- -- 76
2017-09-06 02:00:00 23.7 10 Este 15 Este 0 -- -- 74
2017-09-06 01:00:00 24.6 9 Sudeste 20 Sudeste 0 -- -- 70
2017-09-06 00:00:00 24.9 11 Sudeste 19 Sudeste 0 -- -- 68
2017-09-05 23:00:00 25.8 11 Sudeste 21 Sudeste 0 -- -- 65
2017-09-05 22:00:00 26.7 13 Sudeste 24 Sur 0 -- -- 62
2017-09-05 21:00:00 28.3 9 Sudeste 23 Sudeste 0 -- -- 55
2017-09-05 20:00:00 31.2 6 Nordeste 13 Este 0 -- -- 38
2017-09-05 19:00:00 32.5 9 Nordeste 15 Este 0 -- -- 36
2017-09-05 18:00:00 32.9 9 Norte 14 Noroeste 0 -- -- 35
2017-09-05 17:00:00 33.2 5 Norte 22 Nordeste 0 -- -- 35
2017-09-05 16:00:00 32.2 5 Nordeste 17 Oeste 0 -- -- 35
2017-09-05 15:00:00 31.7 8 Noroeste 14 Norte 0 -- -- 39
2017-09-05 14:00:00 29.8 8 Oeste 18 Sudoeste 0 -- -- 45
2017-09-05 13:00:00 28.9 6 Nordeste 13 Norte 0 -- -- 49
2017-09-05 12:00:00 26.4 8 Sur 19 Sur 0 -- -- 62
2017-09-05 11:00:00 24.3 5 Oeste 10 Este 0 -- -- 67
2017-09-05 10:00:00 20.8 5 Oeste 8 Oeste 0 -- -- 79
2017-09-05 09:00:00 18.5 0 Calma 3 Sur 0 -- -- 87
2017-09-05 08:00:00 17.7 3 Sur 5 Sur 0 -- -- 89
2017-09-05 07:00:00 17.8 0 Calma 2 Oeste 0 -- -- 87
2017-09-05 06:00:00 18.3 0 Calma 4 Oeste 0 -- -- 84
2017-09-05 05:00:00 19.3 3 Sur 12 Nordeste 0 -- -- 84
2017-09-05 04:00:00 20.4 14 Nordeste 20 Nordeste 0 -- -- 80
2017-09-05 03:00:00 20.5 13 Nordeste 16 Nordeste 0 -- -- 81
2017-09-05 02:00:00 20.8 6 Nordeste 12 Nordeste 0 -- -- 80
2017-09-05 01:00:00 21.8 7 Este 13 Nordeste 0 -- -- 76
2017-09-05 00:00:00 22.6 9 Sudeste 18 Sudeste 0 -- -- 76
2017-09-04 23:00:00 23.1 8 Sudeste 23 Sudeste 0 -- -- 73
2017-09-04 22:00:00 23.9 11 Sudeste 27 Sudeste 0 -- -- 69
2017-09-04 21:00:00 24.7 14 Sudeste 24 Sudeste 0 -- -- 66
2017-09-04 20:00:00 26.5 14 Sudeste 25 Sudeste 0 -- -- 60
2017-09-04 19:00:00 27.1 14 Sudeste 36 Este 0 -- -- 60
2017-09-04 18:00:00 27.6 15 Sudeste 41 Sudeste 0 -- -- 56
2017-09-04 17:00:00 28.3 21 Este 38 Este 0 -- -- 53
2017-09-04 16:00:00 30.9 7 Sudeste 17 Sur 0 -- -- 38
2017-09-04 15:00:00 30.3 9 Sur 21 Sur 0 -- -- 40
2017-09-04 14:00:00 29.2 6 Nordeste 19 Sur 0 -- -- 47
2017-09-04 13:00:00 28.3 7 Sudoeste 19 Oeste 0 -- -- 52
2017-09-04 12:00:00 27.2 7 Este 21 Nordeste 0 -- -- 56
2017-09-04 11:00:00 24.6 10 Nordeste 18 Nordeste 0 -- -- 61
2017-09-04 10:00:00 20.6 5 Noroeste 9 Nordeste 0 -- -- 73
2017-09-04 09:00:00 18.4 5 Oeste 9 Noroeste 0 -- -- 78
2017-09-04 08:00:00 17.9 4 Noroeste 12 Norte 0 -- -- 78
2017-09-04 07:00:00 18.7 2 Este 12 Este 0 -- -- 75
2017-09-04 06:00:00 18.8 6 Sudeste 15 Nordeste 0 -- -- 72
2017-09-04 05:00:00 19 3 Norte 9 Nordeste 0 -- -- 73
2017-09-04 04:00:00 19.6 9 Este 14 Este 0 -- -- 68
2017-09-04 03:00:00 20.2 8 Este 12 Este 0 -- -- 67
2017-09-04 02:00:00 19.9 8 Nordeste 12 Nordeste 0 -- -- 65
2017-09-04 01:00:00 20.4 2 Nordeste 21 Este 0.2 -- -- 68
2017-09-04 00:00:00 22.1 6 Sudoeste 12 Sudoeste 0.4 -- -- 53
2017-09-03 23:00:00 24.3 3 Oeste 5 Sudoeste 0 -- -- 40
2017-09-03 22:00:00 24.8 3 Oeste 9 Sudeste 0 -- -- 39
2017-09-03 21:00:00 26 4 Nordeste 9 Este 0 -- -- 35
2017-09-03 20:00:00 27.9 5 Este 9 Nordeste 0 -- -- 31
2017-09-03 19:00:00 29.8 6 Noroeste 16 Sudoeste 0 -- -- 27
2017-09-03 18:00:00 29.6 4 Este 13 Oeste 0 -- -- 27
2017-09-03 17:00:00 29.5 6 Sur 13 Oeste 0 -- -- 26
2017-09-03 16:00:00 28.6 7 Oeste 16 Oeste 0 -- -- 31
2017-09-03 15:00:00 26.8 6 Oeste 15 Noroeste 0 -- -- 36
2017-09-03 14:00:00 24.8 4 Oeste 14 Nordeste 0 -- -- 41
2017-09-03 13:00:00 22 5 Nordeste 15 Noroeste 0 -- -- 48
2017-09-03 12:00:00 19.2 6 Oeste 14 Oeste 0 -- -- 58
2017-09-03 11:00:00 16.7 3 Oeste 9 Oeste 0 -- -- 65
2017-09-03 10:00:00 14.5 3 Nordeste 6 Sudoeste 0 -- -- 74
2017-09-03 09:00:00 12.4 0 Calma 5 Sudoeste 0 -- -- 80
2017-09-03 08:00:00 11.3 2 Noroeste 7 Noroeste 0 -- -- 81
2017-09-03 07:00:00 11.4 4 Oeste 6 Oeste 0 -- -- 80
2017-09-03 06:00:00 13.3 3 Noroeste 4 Sudoeste 0 -- -- 69
2017-09-03 05:00:00 15.3 2 Sudoeste 4 Sudoeste 0 -- -- 63
2017-09-03 04:00:00 15.8 2 Nordeste 10 Sudoeste 0 -- -- 62
2017-09-03 03:00:00 17.2 0 Calma 6 Sur 0 -- -- 57
2017-09-03 02:00:00 17.8 3 Sudeste 9 Sur 0 -- -- 55
2017-09-03 01:00:00 18.5 10 Sudoeste 20 Sudoeste 0 -- -- 51
2017-09-03 00:00:00 19.5 10 Sudoeste 19 Sudoeste 0 -- -- 48
2017-09-02 23:00:00 20.5 11 Sudoeste 21 Sudoeste 0 -- -- 45
2017-09-02 22:00:00 21.9 7 Oeste 23 Oeste 0 -- -- 41
2017-09-02 21:00:00 23.1 10 Oeste 23 Oeste 0 -- -- 38
2017-09-02 20:00:00 25.7 14 Noroeste 26 Oeste 0 -- -- 31
2017-09-02 19:00:00 27.5 20 Oeste 32 Oeste 0 -- -- 28
2017-09-02 18:00:00 28 23 Oeste 33 Oeste 0 -- -- 27
2017-09-02 17:00:00 28.1 18 Oeste 36 Noroeste 0 -- -- 30
2017-09-02 16:00:00 27.6 19 Oeste 40 Oeste 0 -- -- 30
2017-09-02 15:00:00 26.2 12 Noroeste 28 Oeste 0 -- -- 30
2017-09-02 14:00:00 25.4 13 Noroeste 27 Oeste 0 -- -- 32
2017-09-02 13:00:00 23.9 18 Oeste 31 Oeste 0 -- -- 36
2017-09-02 12:00:00 22.4 18 Oeste 31 Oeste 0 -- -- 40
2017-09-02 11:00:00 20.7 17 Oeste 30 Oeste 0 -- -- 45
2017-09-02 10:00:00 18.6 17 Noroeste 26 Noroeste 0 -- -- 52
2017-09-02 09:00:00 16.4 10 Sudoeste 21 Oeste 0 -- -- 63
2017-09-02 08:00:00 15.1 9 Oeste 19 Oeste 0 -- -- 66
2017-09-02 07:00:00 14.9 9 Oeste 22 Noroeste 0 -- -- 66
2017-09-02 06:00:00 15.6 15 Oeste 36 Oeste 0 -- -- 63
2017-09-02 05:00:00 16.4 21 Oeste 32 Oeste 0 -- -- 60
2017-09-02 04:00:00 16.5 10 Oeste 30 Oeste 0 -- -- 56
2017-09-02 03:00:00 17.6 13 Oeste 37 Oeste 0 -- -- 51
2017-09-02 02:00:00 18 10 Noroeste 46 Oeste 0 -- -- 50
2017-09-02 01:00:00 18.6 27 Oeste 49 Oeste 0 -- -- 49
2017-09-02 00:00:00 19.3 28 Oeste 43 Oeste 0 -- -- 48
2017-09-01 23:00:00 20.2 29 Noroeste 50 Noroeste 0 -- -- 45
2017-09-01 22:00:00 21.2 27 Noroeste 38 Noroeste 0 -- -- 42
2017-09-01 21:00:00 22.4 18 Oeste 40 Noroeste 0 -- -- 38
2017-09-01 20:00:00 24.1 24 Oeste 43 Oeste 0 -- -- 35
2017-09-01 19:00:00 26.2 23 Oeste 43 Oeste 0 -- -- 31
2017-09-01 18:00:00 27 27 Oeste 44 Oeste 0 -- -- 29
2017-09-01 17:00:00 27.9 24 Oeste 42 Oeste 0 -- -- 25
2017-09-01 16:00:00 27.9 21 Noroeste 40 Oeste 0 -- -- 28
2017-09-01 15:00:00 27.5 24 Oeste 45 Noroeste 0 -- -- 28
2017-09-01 14:00:00 26.6 22 Oeste 40 Noroeste 0 -- -- 31
2017-09-01 13:00:00 25.6 18 Oeste 32 Oeste 0 -- -- 33
2017-09-01 12:00:00 23.3 14 Oeste 29 Oeste 0 -- -- 44
2017-09-01 11:00:00 20.3 16 Oeste 29 Oeste 0 -- -- 55
2017-09-01 10:00:00 17.8 14 Oeste 24 Oeste 0 -- -- 63
2017-09-01 09:00:00 17.3 8 Sudoeste 18 Sudoeste 0 -- -- 65
2017-09-01 08:00:00 16.5 7 Sudoeste 24 Oeste 0 -- -- 67
2017-09-01 07:00:00 16.8 8 Sudoeste 18 Sudoeste 0 -- -- 66
2017-09-01 06:00:00 17 6 Sudoeste 23 Sudoeste 0 -- -- 66
2017-09-01 05:00:00 17.5 8 Sudoeste 22 Sudoeste 0 -- -- 65
2017-09-01 04:00:00 17.9 12 Sudoeste 19 Sudoeste 0 -- -- 62
2017-09-01 03:00:00 18.1 4 Sudoeste 7 Sudoeste 0 -- -- 62
2017-09-01 02:00:00 19.1 2 Noroeste 5 Oeste 0 -- -- 58
2017-09-01 01:00:00 20.6 3 Norte 8 Sudoeste 0 -- -- 54
2017-09-01 00:00:00 21.2 3 Norte 10 Oeste 0 -- -- 52
2017-08-31 23:00:00 21.9 5 Oeste 21 Oeste 0 -- -- 52
2017-08-31 22:00:00 23.3 11 Sudoeste 21 Oeste 0 -- -- 49
2017-08-31 21:00:00 24.7 8 Oeste 18 Sudoeste 0 -- -- 44
2017-08-31 20:00:00 26.8 8 Sudoeste 20 Sudoeste 0 -- -- 41
2017-08-31 19:00:00 28.2 12 Oeste 25 Sudoeste 0 -- -- 39
2017-08-31 18:00:00 28.4 11 Sudoeste 27 Oeste 0 -- -- 39
2017-08-31 17:00:00 27.9 8 Noroeste 21 Noroeste 0 -- -- 42
2017-08-31 16:00:00 28 8 Oeste 18 Oeste 0 -- -- 45
2017-08-31 15:00:00 25.9 5 Noroeste 22 Noroeste 0 -- -- 50
2017-08-31 14:00:00 26.3 9 Oeste 25 Oeste 0 -- -- 50
2017-08-31 13:00:00 24.7 10 Sudoeste 23 Oeste 0 -- -- 56
2017-08-31 12:00:00 22.1 9 Sudoeste 21 Sudoeste 0 -- -- 65
2017-08-31 11:00:00 19.4 10 Oeste 27 Sudoeste 0 -- -- 74
2017-08-31 10:00:00 18.4 5 Oeste 21 Sudoeste 0 -- -- 80
2017-08-31 09:00:00 17.5 8 Sudoeste 22 Sudoeste 0 -- -- 84
2017-08-31 08:00:00 17.8 14 Sudoeste 23 Sudoeste 0 -- -- 84
2017-08-31 07:00:00 18.2 9 Sudoeste 20 Sudoeste 0 -- -- 86
2017-08-31 06:00:00 18.6 6 Sudoeste 19 Sudoeste 0 -- -- 86
2017-08-31 05:00:00 19.6 6 Sudoeste 10 Oeste 0 -- -- 84
2017-08-31 04:00:00 19.9 3 Sudoeste 6 Sudoeste 0.2 -- -- 91
2017-08-31 03:00:00 20.2 2 Sudeste 5 Sudoeste 0 -- -- 88
2017-08-31 02:00:00 20.3 2 Oeste 9 Noroeste 0 -- -- 86
2017-08-31 01:00:00 20.3 6 Noroeste 22 Noroeste 0 -- -- 89
2017-08-31 00:00:00 20.8 3 Norte 6 Nordeste 0 -- -- 88
2017-08-30 23:00:00 21.5 4 Noroeste 20 Sudeste 0 -- -- 86
2017-08-30 22:00:00 21.6 9 Sur 21 Sudeste 0 -- -- 87
2017-08-30 21:00:00 22.7 4 Oeste 15 Nordeste 0.8 -- -- 85
2017-08-30 20:00:00 23.7 8 Sudeste 27 Sudeste 0.6 -- -- 77
2017-08-30 19:00:00 26.8 17 Sudeste 29 Sur 0 -- -- 57
2017-08-30 18:00:00 28.5 15 Sur 29 Sur 0 -- -- 50
2017-08-30 17:00:00 29.7 13 Este 22 Sudeste 0 -- -- 44
2017-08-30 16:00:00 30.8 8 Este 24 Sudeste 0 -- -- 41
2017-08-30 15:00:00 29.8 13 Este 22 Nordeste 0 -- -- 44
2017-08-30 14:00:00 28.7 8 Sur 17 Sur 0 -- -- 46
2017-08-30 13:00:00 26.5 6 Sur 16 Sudeste 0 -- -- 55
2017-08-30 12:00:00 26.4 6 Este 18 Este 0 -- -- 59
2017-08-30 11:00:00 24.1 9 Este 28 Nordeste 0 -- -- 67
2017-08-30 10:00:00 22.3 11 Este 25 Sudeste 0 -- -- 72
2017-08-30 09:00:00 20.3 12 Este 21 Sudeste 0 -- -- 80
2017-08-30 08:00:00 19.6 9 Sudeste 18 Sur 0 -- -- 81
2017-08-30 07:00:00 18.8 4 Noroeste 10 Noroeste 0 -- -- 88
2017-08-30 06:00:00 19.4 8 Sudeste 31 Este 0 -- -- 85
2017-08-30 05:00:00 19.4 14 Este 27 Este 0.4 -- -- 83
2017-08-30 04:00:00 21 13 Sudeste 26 Sudeste 0 -- -- 72
2017-08-30 03:00:00 21.1 13 Sudeste 22 Sudeste 0 -- -- 68
2017-08-30 02:00:00 20 5 Oeste 11 Oeste 0 -- -- 75
2017-08-30 01:00:00 20.4 4 Oeste 16 Noroeste 0 -- -- 71
2017-08-30 00:00:00 21.4 9 Noroeste 37 Nordeste 0 -- -- 67
2017-08-29 23:00:00 22.2 17 Este 27 Este 0 -- -- 67
2017-08-29 22:00:00 22.9 9 Este 22 Sudeste 0 -- -- 61
2017-08-29 21:00:00 22.5 10 Sudeste 30 Sudeste 0.4 -- -- 61
2017-08-29 20:00:00 23.1 17 Sudeste 29 Sudeste 0 -- -- 71
2017-08-29 19:00:00 24.1 13 Sudeste 42 Sudeste 0 -- -- 66
2017-08-29 18:00:00 26 21 Sudeste 39 Sudeste 0 -- -- 59
2017-08-29 17:00:00 27.2 13 Sudeste 28 Sudeste 0 -- -- 58
2017-08-29 16:00:00 27.5 9 Este 18 Nordeste 0 -- -- 59
2017-08-29 15:00:00 25.1 6 Este 15 Nordeste 0 -- -- 66
2017-08-29 14:00:00 26.7 10 Nordeste 19 Nordeste 0 -- -- 60
2017-08-29 13:00:00 25.4 8 Este 16 Nordeste 0 -- -- 65
2017-08-29 12:00:00 25.1 4 Este 14 Nordeste 0 -- -- 65
2017-08-29 11:00:00 23 6 Oeste 11 Noroeste 0 -- -- 72
2017-08-29 10:00:00 21.1 4 Oeste 12 Norte 0 -- -- 79
2017-08-29 09:00:00 20.4 4 Sur 14 Noroeste 0 -- -- 81
2017-08-29 08:00:00 19.3 5 Oeste 17 Sur 0.2 -- -- 88
2017-08-29 07:00:00 19.2 3 Sur 15 Sur 0 -- -- 87
2017-08-29 06:00:00 19.4 8 Sur 13 Sur 0 -- -- 87
2017-08-29 05:00:00 19.6 6 Sur 14 Sur 0 -- -- 87
2017-08-29 04:00:00 20 8 Sudoeste 15 Oeste 0 -- -- 85
2017-08-29 03:00:00 20.4 10 Oeste 21 Noroeste 0 -- -- 82
2017-08-29 02:00:00 21.5 18 Noroeste 29 Noroeste 0 -- -- 79
2017-08-29 01:00:00 22.1 19 Noroeste 35 Oeste 0 -- -- 78
2017-08-29 00:00:00 23.9 12 Oeste 23 Oeste 0 -- -- 79
2017-08-28 23:00:00 25.9 4 Sudoeste 16 Sudoeste 0 -- -- 69
2017-08-28 22:00:00 26.8 4 Este 11 Sudeste 0 -- -- 65
2017-08-28 21:00:00 27.9 3 Noroeste 14 Noroeste 0 -- -- 56
2017-08-28 20:00:00 29.2 7 Noroeste 25 Noroeste 0 -- -- 52
2017-08-28 19:00:00 32.1 13 Oeste 28 Sudeste 0 -- -- 42
2017-08-28 18:00:00 33.2 14 Sudeste 40 Sudeste 0 -- -- 40
2017-08-28 17:00:00 34.1 22 Sudeste 35 Sudeste 0 -- -- 29
2017-08-28 16:00:00 35.6 9 Sudeste 17 Este 0 -- -- 34
2017-08-28 15:00:00 33.3 7 Oeste 16 Noroeste 0 -- -- 39
2017-08-28 14:00:00 32 6 Este 12 Este 0 -- -- 42
2017-08-28 13:00:00 28.5 4 Sur 13 Noroeste 0 -- -- 59
2017-08-28 12:00:00 26 7 Norte 16 Norte 0 -- -- 68
2017-08-28 11:00:00 22.9 8 Noroeste 13 Noroeste 0 -- -- 79
2017-08-28 10:00:00 21.1 5 Oeste 10 Oeste 0 -- -- 85
2017-08-28 09:00:00 19.6 4 Norte 9 Noroeste 0 -- -- 92
2017-08-28 08:00:00 18.1 0 Calma 8 Sur 0 -- -- 93
2017-08-28 07:00:00 18.4 4 Sur 6 Sur 0 -- -- 92
2017-08-28 06:00:00 18.6 2 Nordeste 5 Oeste 0 -- -- 90
2017-08-28 05:00:00 18.8 2 Noroeste 5 Oeste 0 -- -- 89
2017-08-28 04:00:00 19.1 0 Calma 4 Oeste 0 -- -- 89
2017-08-28 03:00:00 19.5 0 Calma 9 Nordeste 0 -- -- 84
2017-08-28 02:00:00 20.3 4 Norte 7 Noroeste 0 -- -- 82
2017-08-28 01:00:00 21.3 0 Calma 7 Sur 0 -- -- 78
2017-08-28 00:00:00 22 4 Sur 9 Sudeste 0 -- -- 75
2017-08-27 23:00:00 22.4 5 Sudeste 10 Sudeste 0 -- -- 74
2017-08-27 22:00:00 22.5 5 Sudeste 11 Sur 0 -- -- 73
2017-08-27 21:00:00 21.9 5 Sur 22 Noroeste 0 -- -- 79
2017-08-27 20:00:00 22.1 16 Noroeste 28 Noroeste 0.2 -- -- 79
2017-08-27 19:00:00 24.2 23 Noroeste 45 Noroeste 0 -- -- 64
2017-08-27 18:00:00 27.2 31 Oeste 56 Oeste 0 -- -- 55
2017-08-27 17:00:00 32 17 Sudeste 29 Sur 0 -- -- 32
2017-08-27 16:00:00 33.4 13 Sur 28 Sur 0 -- -- 41
2017-08-27 15:00:00 35 10 Este 21 Nordeste 0 -- -- 37
2017-08-27 14:00:00 33.6 9 Norte 18 Nordeste 0 -- -- 43
2017-08-27 13:00:00 31.9 9 Este 18 Este 0 -- -- 46
2017-08-27 12:00:00 28.8 5 Nordeste 14 Noroeste 0 -- -- 60
2017-08-27 11:00:00 25.5 5 Oeste 12 Noroeste 0 -- -- 72
2017-08-27 10:00:00 24.7 2 Sur 9 Este 0 -- -- 76
2017-08-27 09:00:00 22.5 5 Nordeste 12 Sur 0 -- -- 85
2017-08-27 08:00:00 22.1 8 Sur 26 Este 0 -- -- 84
2017-08-27 07:00:00 21.8 11 Nordeste 16 Nordeste 0 -- -- 85
2017-08-27 06:00:00 22.5 8 Nordeste 12 Nordeste 0 -- -- 81
2017-08-27 05:00:00 22.9 5 Este 12 Sudeste 0 -- -- 80
2017-08-27 04:00:00 23.1 6 Sur 8 Sudeste 0 -- -- 78
2017-08-27 03:00:00 23 0 Calma 8 Oeste 0 -- -- 82
2017-08-27 02:00:00 23.3 9 Oeste 21 Norte 0 -- -- 81
2017-08-27 01:00:00 24.3 6 Sudeste 23 Sudeste 0 -- -- 77
2017-08-27 00:00:00 24.2 12 Este 19 Sudoeste 0 -- -- 76
2017-08-26 23:00:00 24.1 15 Sur 25 Sur 0 -- -- 82
2017-08-26 22:00:00 24.7 5 Sudeste 29 Sudeste 0.2 -- -- 75
2017-08-26 21:00:00 25.9 11 Sudeste 22 Sudeste 0.2 -- -- 73
2017-08-26 20:00:00 27.6 18 Sudoeste 51 Sudoeste 0 -- -- 64
2017-08-26 19:00:00 29.6 15 Sudeste 32 Sudeste 0 -- -- 54
2017-08-26 18:00:00 31.3 18 Sudeste 33 Sudeste 0 -- -- 49
2017-08-26 17:00:00 33.2 19 Sudeste 31 Sudeste 0 -- -- 43
2017-08-26 16:00:00 34.5 16 Sudeste 29 Sudeste 0 -- -- 38
2017-08-26 15:00:00 35.5 11 Nordeste 19 Este 0 -- -- 37
2017-08-26 14:00:00 33.6 10 Nordeste 24 Nordeste 0 -- -- 41
2017-08-26 13:00:00 31.7 16 Nordeste 24 Nordeste 0 -- -- 44
2017-08-26 12:00:00 28.2 17 Nordeste 27 Nordeste 0 -- -- 53
2017-08-26 11:00:00 27.2 16 Nordeste 27 Nordeste 0 -- -- 56
2017-08-26 10:00:00 24.2 18 Nordeste 23 Nordeste 0 -- -- 64
2017-08-26 09:00:00 23.8 15 Nordeste 27 Nordeste 0 -- -- 64
2017-08-26 08:00:00 21.5 17 Nordeste 23 Nordeste 0 -- -- 68
2017-08-26 07:00:00 21.9 13 Este 21 Este 0 -- -- 65
2017-08-26 06:00:00 23.3 9 Este 28 Sudeste 0 -- -- 64
2017-08-26 05:00:00 24 12 Sudeste 26 Sudeste 0 -- -- 67
2017-08-26 04:00:00 23.6 10 Sudeste 18 Este 0 -- -- 59
2017-08-26 03:00:00 23.4 13 Este 27 Nordeste 0 -- -- 54
2017-08-26 02:00:00 24 21 Nordeste 27 Nordeste 0 -- -- 52
2017-08-26 01:00:00 25 10 Este 24 Este 0 -- -- 52
2017-08-26 00:00:00 25.1 13 Este 29 Sudeste 0 -- -- 70
2017-08-25 23:00:00 25.8 18 Sudeste 35 Sudeste 0 -- -- 66
2017-08-25 22:00:00 26.3 19 Sudeste 37 Sudeste 0 -- -- 52
2017-08-25 21:00:00 26.7 17 Sudeste 35 Sur 0 -- -- 54
2017-08-25 20:00:00 27.4 17 Sudeste 35 Sur 0 -- -- 64
2017-08-25 19:00:00 29.7 19 Sudeste 37 Sudeste 0 -- -- 53
2017-08-25 18:00:00 32.2 19 Sudeste 33 Sudeste 0 -- -- 43
2017-08-25 17:00:00 30.5 20 Sudeste 41 Sudeste 0 -- -- 45
2017-08-25 16:00:00 31.5 26 Sudeste 45 Sudeste 0 -- -- 41
2017-08-25 15:00:00 33.4 21 Este 37 Sudeste 0 -- -- 39
2017-08-25 14:00:00 32.8 14 Este 32 Sudeste 0 -- -- 41
2017-08-25 13:00:00 31.4 16 Sudeste 29 Este 0 -- -- 45
2017-08-25 12:00:00 29.7 15 Este 24 Este 0 -- -- 52
2017-08-25 11:00:00 26.8 15 Nordeste 23 Este 0 -- -- 57
2017-08-25 10:00:00 23.6 18 Nordeste 24 Nordeste 0 -- -- 62
2017-08-25 09:00:00 22.5 17 Nordeste 24 Nordeste 0 -- -- 65
2017-08-25 08:00:00 21.4 14 Este 24 Este 0 -- -- 69
2017-08-25 07:00:00 21.4 17 Nordeste 23 Este 0 -- -- 66
2017-08-25 06:00:00 21.6 12 Este 22 Este 0 -- -- 64
2017-08-25 05:00:00 21.9 15 Nordeste 23 Este 0 -- -- 62
2017-08-25 04:00:00 22.1 15 Este 28 Este 0 -- -- 59
2017-08-25 03:00:00 22.3 17 Nordeste 25 Nordeste 0 -- -- 55
2017-08-25 02:00:00 22.7 12 Este 23 Sudeste 0 -- -- 55
2017-08-25 01:00:00 25.3 15 Sudeste 32 Sudeste 0 -- -- 51
2017-08-25 00:00:00 25.4 15 Este 31 Sudeste 0 -- -- 54
2017-08-24 23:00:00 26 17 Sudeste 38 Sudeste 0 -- -- 50
2017-08-24 22:00:00 26.8 22 Sudeste 39 Este 0 -- -- 43
2017-08-24 21:00:00 27.7 15 Sudeste 34 Sudeste 0 -- -- 42
2017-08-24 20:00:00 30.2 19 Sudeste 35 Sudeste 0 -- -- 35
2017-08-24 19:00:00 32.1 23 Sudeste 40 Sudeste 0 -- -- 32
2017-08-24 18:00:00 33.8 15 Sudeste 41 Sudeste 0 -- -- 28
2017-08-24 17:00:00 34.1 16 Sudeste 33 Sudeste 0 -- -- 30
2017-08-24 16:00:00 34.4 13 Sudeste 30 Sudeste 0 -- -- 32
2017-08-24 15:00:00 33.1 18 Nordeste 26 Nordeste 0 -- -- 44
2017-08-24 14:00:00 31.7 13 Nordeste 30 Nordeste 0 -- -- 48
2017-08-24 13:00:00 29.5 16 Nordeste 29 Nordeste 0 -- -- 56
2017-08-24 12:00:00 28.1 13 Nordeste 21 Nordeste 0 -- -- 63
2017-08-24 11:00:00 25.3 6 Este 12 Este 0 -- -- 69
2017-08-24 10:00:00 23 3 Noroeste 9 Norte 0 -- -- 82
2017-08-24 09:00:00 20.7 6 Norte 14 Nordeste 0 -- -- 89
2017-08-24 08:00:00 20.6 4 Norte 11 Norte 0 -- -- 88
2017-08-24 07:00:00 20.9 3 Noroeste 17 Noroeste 0.6 -- -- 87
2017-08-24 06:00:00 21.4 10 Noroeste 27 Oeste 0.4 -- -- 86
2017-08-24 05:00:00 21.4 7 Oeste 41 Este 0.8 -- -- 85
2017-08-24 04:00:00 22.5 3 Este 32 Nordeste 0 -- -- 76
2017-08-24 03:00:00 22.5 18 Norte 46 Noroeste 0.2 -- -- 75
2017-08-24 02:00:00 23.1 21 Noroeste 49 Noroeste 0 -- -- 80
2017-08-24 01:00:00 23.5 13 Sudeste 30 Sudeste 0.6 -- -- 77
2017-08-24 00:00:00 24.5 10 Este 22 Este 0 -- -- 72
2017-08-23 23:00:00 24.9 8 Sudeste 21 Este 0 -- -- 69
2017-08-23 22:00:00 25.3 10 Este 29 Sudeste 0 -- -- 65
2017-08-23 21:00:00 26.2 11 Sudeste 37 Sudeste 0 -- -- 65
2017-08-23 20:00:00 27 21 Sudeste 41 Sudeste 0 -- -- 63
2017-08-23 19:00:00 28.4 20 Sudeste 36 Sudeste 0 -- -- 58
2017-08-23 18:00:00 29 15 Sudeste 31 Sudeste 0 -- -- 56
2017-08-23 17:00:00 31 18 Sur 32 Sur 0 -- -- 47
2017-08-23 16:00:00 32.9 19 Sur 34 Sur 0 -- -- 42
2017-08-23 15:00:00 33.9 11 Este 24 Sudeste 0 -- -- 38
2017-08-23 14:00:00 32.8 10 Nordeste 24 Nordeste 0 -- -- 42
2017-08-23 13:00:00 31 9 Este 21 Este 0 -- -- 47
2017-08-23 12:00:00 29.1 9 Sudeste 19 Sudeste 0 -- -- 54
2017-08-23 11:00:00 27.2 8 Sudeste 15 Sudeste 0 -- -- 62
2017-08-23 10:00:00 24.3 3 Oeste 10 Sur 0 -- -- 69
2017-08-23 09:00:00 21.7 4 Sudoeste 6 Sudoeste 0 -- -- 72
2017-08-23 08:00:00 20.4 2 Noroeste 5 Sudoeste 0 -- -- 76
2017-08-23 07:00:00 21.2 3 Sudoeste 10 Este 0 -- -- 74
2017-08-23 06:00:00 21.3 0 Calma 7 Sudoeste 0 -- -- 74
2017-08-23 05:00:00 21.9 3 Este 6 Nordeste 0 -- -- 72
2017-08-23 04:00:00 22.7 4 Este 10 Sudeste 0 -- -- 73
2017-08-23 03:00:00 23.9 8 Sudeste 28 Nordeste 0 -- -- 66
2017-08-23 02:00:00 24.3 14 Nordeste 49 Este 0 -- -- 61
2017-08-23 01:00:00 24.1 27 Este 46 Este 0 -- -- 63
2017-08-23 00:00:00 25.3 14 Sudeste 28 Este 0 -- -- 56
2017-08-22 23:00:00 25.8 10 Sudeste 29 Sudeste 0 -- -- 54
2017-08-22 22:00:00 26.4 19 Sudeste 36 Sudeste 0 -- -- 53
2017-08-22 21:00:00 27.7 22 Sudeste 45 Sudeste 0 -- -- 53
2017-08-22 20:00:00 29.7 24 Sudeste 40 Sudeste 0 -- -- 52
2017-08-22 19:00:00 32.3 21 Sudeste 36 Sudeste 0 -- -- 47
2017-08-22 18:00:00 33.8 21 Sudeste 32 Sudeste 0 -- -- 42
2017-08-22 17:00:00 34.8 17 Sudeste 27 Sudeste 0 -- -- 40
2017-08-22 16:00:00 35.7 9 Sudeste 26 Sur 0 -- -- 37
2017-08-22 15:00:00 34.8 10 Sudeste 22 Sudeste 0 -- -- 38
2017-08-22 14:00:00 33.7 9 Sudeste 19 Sur 0 -- -- 40
2017-08-22 13:00:00 31.5 9 Sur 21 Sur 0 -- -- 44
2017-08-22 12:00:00 29.3 8 Sudeste 22 Este 0 -- -- 54
2017-08-22 11:00:00 26.5 6 Sudeste 15 Sudeste 0 -- -- 62
2017-08-22 10:00:00 22.9 4 Oeste 9 Oeste 0 -- -- 76
2017-08-22 09:00:00 20.6 5 Oeste 8 Oeste 0 -- -- 83
2017-08-22 08:00:00 19.3 3 Sudoeste 12 Nordeste 0 -- -- 86
2017-08-22 07:00:00 19.7 3 Nordeste 8 Sudeste 0 -- -- 85
2017-08-22 06:00:00 20.6 3 Sudeste 9 Sudeste 0 -- -- 83
2017-08-22 05:00:00 21.5 6 Este 16 Este 0 -- -- 80
2017-08-22 04:00:00 22.2 8 Este 14 Este 0 -- -- 76
2017-08-22 03:00:00 23.3 8 Sudeste 17 Sudeste 0 -- -- 71
2017-08-22 02:00:00 23.6 8 Este 20 Sudeste 0 -- -- 67
2017-08-22 01:00:00 23.9 9 Sudeste 25 Sudeste 0 -- -- 69
2017-08-22 00:00:00 24.8 12 Sudeste 26 Sudeste 0 -- -- 68